General Aviation Weather

Text Reports

Enter one or more of the following location identifiers separated by a space:

Zip Code, Four-Character ICAO or Three-Character IATA airport codes.

METAR - Aviation Routine Weather Report
KBTP - Butler, Pennsylvania
Updated at 12:55 PM GMT on November 26, 2014 (7:55 AM EST):
METAR KBTP 261255Z AUTO 04007KT 10SM BKN100 M02/M04 A3009 RMK AO1
TAF - Terminal Area Forecast
KBTP - Butler, Pennsylvania
Updated at 12:55 PM GMT on November 26, 2014 (7:55 AM EST):
No TAF is currently available for this location.
Decoded:
No decoded TAF is available.
PIREP - Pilot Weather Report
KBTP - Butler, Pennsylvania
Updated at 12:55 PM GMT on November 26, 2014 (7:55 AM EST):
No PIREP is currently available for this location.
AIRMET - Airmens Meteorological Information
KBTP - Butler, Pennsylvania
Updated at 12:55 PM GMT on November 26, 2014 (7:55 AM EST):
No AIRMET is currently available for this location.
SIGMET - Significant Meteorological Information
KBTP - Butler, Pennsylvania
Updated at 12:55 PM GMT on November 26, 2014 (7:55 AM EST):
No SIGMET is currently available for this location.
NOTAM - Notice to Airmen
KBTP - Butler, Pennsylvania
Updated at 12:55 PM GMT on November 26, 2014 (7:55 AM EST):
No NOTAM is currently available for this location.
Forecast Area
KBTP - Butler, Pennsylvania
Updated at 12:55 PM GMT on November 26, 2014 (7:55 AM EST):
No NOTAM is currently available for this location.
Aviation Weather Maps